Acapulco G. Alvarez, Mexico

11:13 AM CDT on August 30, 2014 (GMT -0500)
Gen Juan N Alvarez International | Change Station
CLOSE
Current Station
Airport
Location: Acapulco,
Elevation: 16 ft
Nearby Weather Stations

Elev 16 ft 16.76 °N, 99.75 °W | Updated 30 minutes ago

Mostly Cloudy
Mostly Cloudy
82 °F
Feels Like 90 °F
N
0
Wind Variable Wind from North

Today
High -- | Low -- °F
--% Chance of Precip.
Yesterday
High -- | Low -- °F
Precip. -- in
7:25 AM 7:53 PM
Waxing Crescent, 23% visible
Pressure 29.87 in
Visibility 8.0 miles
Clouds Scattered Clouds 1500 ft
Mostly Cloudy 30000 ft
Heat Index 90 °F
Dew Point 75 °F
Humidity 79%
Rainfall 0.00 in
Snow Depth Not available.
UV 4 out of 12
Pollen Not available.
Air Quality Not available.
Flu Activity Not available.
METAR MMAA 301543Z 00000KT 8SM SCT015TCU BKN300 28/24 A2987 RMK 8/202

More Conditions Fewer Conditions

Pressure 29.87 in
Visibility 8.0 miles
Clouds Scattered Clouds 1500 ft
Mostly Cloudy 30000 ft
Heat Index 90 °F
Dew Point 75 °F
Humidity 79%
Rainfall 0.00 in
Snow Depth Not available.
UV 4 out of 12
Pollen Not available.
Air Quality Not available.
Flu Activity Not available.
METAR MMAA 301543Z 00000KT 8SM SCT015TCU BKN300 28/24 A2987 RMK 8/202

More Conditions Fewer Conditions

10-Day Weather Forecast

Almanac

Astronomy

Aug. 30, 2014 Rise Set
Actual Time 7:25 AM CDT 7:53 PM CDT
Civil Twilight 7:03 AM CDT 8:15 PM CDT
Nautical Twilight 6:37 AM CDT 8:41 PM CDT
Astronomical Twilight 6:11 AM CDT 9:06 PM CDT
Moon 11:27 AM CDT 11:18 PM CDT
Length of Visible Light 13h 12m
Length of Day
12h 28m
Tomorrow will be 0m 55s shorter.
Waxing Crescent, 23% of the Moon is Illuminated
Today
Waxing Crescent
Sep 2
First Quarter
Sep 8
Full
Sep 15
Last Quarter
Sep 24
New

Today's Extremes

Country Highs Country Lows

Community

WunderPhotos

Upload Photos

1,748,556 photos uploaded!

WunderBlogs® & News

Nearby

Snow Depth

Not available.

Earthquake Activity

City Distance Mag. Time & Date
No recent earthquake activity has been reported nearby.
Minimum magnitude displayed is 2.5.

Coastal Water Temperatures

Place Temperature
No Stations Reporting

Nearby Weather Stations